Time;durP1;ratioP1;P1;durP2;ratioP2;P2;SDS_P1;SDS_P2;PMS_P1;PMS_P2;Temp;Humidity;BMP_temperature;BMP_pressure;BME280_temperature;BME280_humidity;BME280_pressure;Samples;Min_cycle;Max_cycle;Signal;HPM_P1;HPM_P2
2022/10/31 00:01:55;;;;;;;16.65;8.30;;;13.50;99.90;;;;;;4233818;28;20075;-91
2022/10/31 00:03:56;;;;;;;19.50;7.35;;;13.60;99.90;;;;;;4231076;28;20416;-91
2022/10/31 00:06:01;;;;;;;19.85;7.75;;;13.60;99.90;;;;;;4217418;28;20091;-91
2022/10/31 00:08:02;;;;;;;21.90;8.38;;;13.50;99.90;;;;;;4217386;28;20052;-91
2022/10/31 00:10:03;;;;;;;22.10;8.55;;;13.50;99.90;;;;;;4218088;28;20123;-91
2022/10/31 00:12:04;;;;;;;17.13;7.35;;;13.50;99.90;;;;;;4216878;28;20047;-91
2022/10/31 00:14:05;;;;;;;19.65;8.60;;;13.40;99.90;;;;;;4217324;28;20040;-91
2022/10/31 00:16:14;;;;;;;17.88;8.32;;;13.40;99.90;;;;;;4199943;28;20053;-91
2022/10/31 00:18:15;;;;;;;22.95;7.85;;;13.40;99.90;;;;;;4219313;28;20040;-91
2022/10/31 00:20:16;;;;;;;22.08;7.63;;;13.40;99.90;;;;;;4217313;28;20047;-91
2022/10/31 00:22:17;;;;;;;16.90;8.10;;;13.30;99.90;;;;;;4218073;28;20052;-91
2022/10/31 00:24:18;;;;;;;32.28;8.70;;;13.30;99.90;;;;;;4218521;28;20126;-91
2022/10/31 00:26:20;;;;;;;20.60;7.57;;;13.30;99.90;;;;;;4199007;28;20092;-91
2022/10/31 00:28:21;;;;;;;15.98;7.20;;;13.30;99.90;;;;;;4217076;28;20050;-91
2022/10/31 00:30:21;;;;;;;20.35;7.85;;;13.30;99.90;;;;;;4218118;28;20520;-91
2022/10/31 00:32:22;;;;;;;21.05;8.65;;;13.30;99.90;;;;;;4200337;28;20125;-90
2022/10/31 00:34:23;;;;;;;16.20;8.27;;;13.30;99.90;;;;;;4224417;28;20036;-91
2022/10/31 00:36:23;;;;;;;19.83;8.82;;;12.90;99.90;;;;;;4233799;28;20098;-91
2022/10/31 00:38:25;;;;;;;20.45;8.45;;;13.30;99.90;;;;;;4234027;28;20104;-90
2022/10/31 00:40:26;;;;;;;21.90;9.60;;;13.20;99.90;;;;;;4233938;28;20048;-91
2022/10/31 00:42:27;;;;;;;16.52;8.30;;;13.20;99.90;;;;;;4235186;28;20040;-91
2022/10/31 00:44:28;;;;;;;21.90;8.45;;;13.20;99.90;;;;;;4233262;28;20074;-90
2022/10/31 00:46:28;;;;;;;20.58;7.70;;;13.20;99.90;;;;;;4217071;28;20047;-89
2022/10/31 00:48:29;;;;;;;20.02;7.90;;;13.20;99.90;;;;;;4233336;28;20042;-90
2022/10/31 00:50:30;;;;;;;23.42;9.15;;;13.20;99.90;;;;;;4233281;28;20046;-90
2022/10/31 00:52:32;;;;;;;19.25;8.40;;;13.10;99.90;;;;;;4233085;28;20055;-90
2022/10/31 00:54:33;;;;;;;16.85;8.57;;;13.10;99.90;;;;;;4233716;28;20058;-88
2022/10/31 00:56:33;;;;;;;16.40;8.00;;;13.10;99.90;;;;;;4235183;28;20039;-90
2022/10/31 00:58:34;;;;;;;18.77;8.75;;;13.10;99.90;;;;;;4234308;28;20040;-90
2022/10/31 01:00:35;;;;;;;19.58;9.98;;;13.10;99.90;;;;;;4234676;28;20036;-90
2022/10/31 01:02:36;;;;;;;23.80;9.05;;;13.00;99.90;;;;;;4232686;28;20141;-90
2022/10/31 01:04:36;;;;;;;17.60;7.93;;;13.00;99.90;;;;;;4234496;28;20042;-90
2022/10/31 01:06:38;;;;;;;24.55;9.02;;;13.00;99.90;;;;;;4231915;28;20047;-91
2022/10/31 01:08:39;;;;;;;21.98;9.23;;;13.00;99.90;;;;;;4233909;28;20125;-90
2022/10/31 01:10:40;;;;;;;19.95;8.80;;;13.00;99.90;;;;;;4234477;28;20082;-90
2022/10/31 01:12:43;;;;;;;19.52;9.02;;;13.00;99.90;;;;;;4232742;28;20433;-91
2022/10/31 01:14:45;;;;;;;21.77;8.45;;;13.00;99.90;;;;;;4216134;28;20600;-90
2022/10/31 01:16:45;;;;;;;21.38;8.90;;;12.30;99.90;;;;;;4234222;28;20503;-90
2022/10/31 01:18:46;;;;;;;19.67;9.43;;;13.00;99.90;;;;;;4234393;28;20050;-90
2022/10/31 01:21:00;;;;;;;22.10;9.15;;;12.90;99.90;;;;;;4232976;28;20056;-90
2022/10/31 01:23:02;;;;;;;26.60;9.40;;;12.90;99.90;;;;;;4232643;28;20058;-90
2022/10/31 01:25:04;;;;;;;25.77;8.68;;;12.90;99.90;;;;;;4228245;28;20456;-90
2022/10/31 01:27:05;;;;;;;20.88;9.82;;;12.90;99.90;;;;;;4215207;28;20062;-90
2022/10/31 01:29:08;;;;;;;22.23;9.13;;;12.90;99.90;;;;;;4231341;28;20048;-90
2022/10/31 01:31:10;;;;;;;21.38;8.50;;;12.90;99.90;;;;;;4226982;28;20094;-90
2022/10/31 01:33:11;;;;;;;17.67;7.65;;;12.80;99.90;;;;;;4215704;28;20105;-90
2022/10/31 01:35:12;;;;;;;17.85;8.77;;;12.80;99.90;;;;;;4213572;28;20583;-90
2022/10/31 01:37:12;;;;;;;20.70;8.27;;;12.80;99.90;;;;;;4232966;28;20082;-89
2022/10/31 01:39:15;;;;;;;27.50;8.63;;;12.80;99.90;;;;;;4232934;28;20130;-89
2022/10/31 01:41:20;;;;;;;17.92;8.68;;;12.80;99.90;;;;;;4233895;28;20051;-89
2022/10/31 01:43:21;;;;;;;23.90;8.85;;;12.80;99.90;;;;;;4216262;28;20048;-91
2022/10/31 01:45:23;;;;;;;22.27;7.90;;;12.80;99.90;;;;;;4232531;28;20059;-90
2022/10/31 01:47:35;;;;;;;16.92;7.85;;;12.80;99.90;;;;;;4233505;28;20071;-92
2022/10/31 01:49:41;;;;;;;13.85;7.88;;;12.80;99.90;;;;;;4232718;28;20051;-91
2022/10/31 01:51:47;;;;;;;16.50;8.20;;;12.80;99.90;;;;;;4232337;28;20051;-89
2022/10/31 01:53:52;;;;;;;18.23;8.43;;;12.80;99.90;;;;;;4231801;28;20044;-91
2022/10/31 01:55:54;;;;;;;16.98;7.32;;;12.70;99.90;;;;;;4232519;28;20123;-92
2022/10/31 01:58:01;;;;;;;17.30;7.53;;;12.80;99.90;;;;;;4231943;28;20047;-92
2022/10/31 02:00:07;;;;;;;20.75;7.80;;;12.70;99.90;;;;;;4232747;28;20052;-91
2022/10/31 02:02:08;;;;;;;16.92;7.43;;;12.70;99.90;;;;;;4219039;28;20047;-91
2022/10/31 02:04:09;;;;;;;13.57;7.38;;;12.70;99.90;;;;;;4220853;28;20500;-91
2022/10/31 02:06:33;;;;;;;17.52;7.55;;;12.30;99.90;;;;;;4232762;28;20157;-91
2022/10/31 02:08:37;;;;;;;15.63;7.90;;;12.70;99.90;;;;;;4233523;28;20085;-91
2022/10/31 02:10:38;;;;;;;20.70;9.05;;;12.60;99.90;;;;;;4232418;28;20079;-92
2022/10/31 02:12:40;;;;;;;22.38;7.85;;;12.60;99.90;;;;;;4232565;28;20088;-92
2022/10/31 02:14:41;;;;;;;15.48;7.22;;;12.60;99.90;;;;;;4215637;28;20121;-91
2022/10/31 02:16:42;;;;;;;15.77;7.40;;;12.60;99.90;;;;;;4225034;28;20051;-92
2022/10/31 02:18:43;;;;;;;14.40;7.47;;;12.60;99.90;;;;;;4233684;28;20047;-91
2022/10/31 02:21:36;;;;;;;15.25;7.57;;;12.50;99.90;;;;;;4215526;28;20073;-90
2022/10/31 02:23:53;;;;;;;22.08;8.02;;;12.50;99.90;;;;;;4186959;28;20052;-90
2022/10/31 02:26:17;;;;;;;15.85;8.35;;;12.50;99.90;;;;;;4215925;28;20040;-90
2022/10/31 02:28:46;;;;;;;16.60;7.80;;;12.50;99.90;;;;;;4222048;28;20104;-90
2022/10/31 02:31:24;;;;;;;17.63;7.93;;;12.50;99.90;;;;;;4215107;28;20059;-90
2022/10/31 02:33:43;;;;;;;12.40;7.60;;;12.50;99.90;;;;;;4233586;28;20044;-90
2022/10/31 02:36:12;;;;;;;19.65;8.75;;;12.40;99.90;;;;;;4215470;28;20056;-92
2022/10/31 02:38:37;;;;;;;21.98;8.27;;;12.40;99.90;;;;;;4215609;28;20049;-91
2022/10/31 02:41:09;;;;;;;19.27;8.23;;;12.40;99.90;;;;;;4232940;28;20044;-90
2022/10/31 02:43:32;;;;;;;17.33;8.25;;;12.40;99.90;;;;;;4211373;28;20056;-90
2022/10/31 02:45:43;;;;;;;17.10;8.43;;;12.40;99.90;;;;;;4216407;28;20040;-90
2022/10/31 02:47:45;;;;;;;17.52;8.20;;;12.40;99.90;;;;;;4232507;28;20501;-90
2022/10/31 02:50:07;;;;;;;17.25;8.32;;;12.40;99.90;;;;;;4215749;28;20051;-90
2022/10/31 02:52:19;;;;;;;22.38;8.98;;;12.40;99.90;;;;;;4232329;28;20083;-91
2022/10/31 02:54:24;;;;;;;15.43;7.53;;;12.40;99.90;;;;;;4232019;28;20047;-90
2022/10/31 02:56:25;;;;;;;19.38;9.18;;;12.30;99.90;;;;;;4233874;28;20039;-90
2022/10/31 02:58:31;;;;;;;18.23;8.73;;;12.30;99.90;;;;;;4231187;28;20044;-89
2022/10/31 03:00:41;;;;;;;21.48;8.73;;;12.30;99.90;;;;;;4231827;28;20071;-89
2022/10/31 03:02:54;;;;;;;15.00;7.28;;;12.30;99.90;;;;;;4214104;28;20052;-89
2022/10/31 03:05:20;;;;;;;15.80;8.18;;;12.30;99.90;;;;;;4230275;28;20048;-90
2022/10/31 03:07:30;;;;;;;16.95;7.47;;;12.30;99.90;;;;;;4231258;28;20040;-90
2022/10/31 03:10:04;;;;;;;15.43;7.70;;;12.30;99.90;;;;;;4232425;28;20079;-91
2022/10/31 03:12:11;;;;;;;23.23;8.60;;;12.20;99.90;;;;;;4230303;28;20066;-90
2022/10/31 03:14:28;;;;;;;17.42;7.95;;;12.20;99.90;;;;;;4214298;28;20048;-90
2022/10/31 03:16:51;;;;;;;17.30;8.18;;;12.20;99.90;;;;;;4222264;28;20134;-90
2022/10/31 03:18:57;;;;;;;21.92;9.68;;;12.20;99.90;;;;;;4231015;28;20563;-90
2022/10/31 03:21:04;;;;;;;21.60;7.85;;;12.20;99.90;;;;;;4232484;28;20092;-90
2022/10/31 03:23:11;;;;;;;18.58;8.02;;;12.20;99.90;;;;;;4214560;28;20048;-90
2022/10/31 03:25:13;;;;;;;18.63;8.82;;;12.10;99.90;;;;;;4213984;28;20060;-90
2022/10/31 03:27:18;;;;;;;16.83;7.82;;;12.10;99.90;;;;;;4214037;28;20139;-90
2022/10/31 03:29:24;;;;;;;22.13;8.30;;;12.10;99.90;;;;;;4231656;28;20043;-90
2022/10/31 03:31:30;;;;;;;17.55;7.95;;;12.10;99.90;;;;;;4223371;28;20083;-91
2022/10/31 03:33:35;;;;;;;19.25;9.05;;;12.00;99.90;;;;;;4214487;28;20533;-90
2022/10/31 03:35:39;;;;;;;19.40;7.63;;;12.00;99.90;;;;;;4231813;28;20043;-91
2022/10/31 03:37:41;;;;;;;19.45;8.77;;;12.00;99.90;;;;;;4233732;28;20054;-90
2022/10/31 03:39:45;;;;;;;16.58;8.50;;;12.00;99.90;;;;;;4234570;28;20505;-90
2022/10/31 03:42:05;;;;;;;17.85;7.97;;;12.00;99.90;;;;;;4234914;28;20116;-90
2022/10/31 03:44:10;;;;;;;18.80;7.45;;;11.90;99.90;;;;;;4221556;28;20087;-90
2022/10/31 03:46:11;;;;;;;17.77;8.05;;;11.90;99.90;;;;;;4217425;28;20055;-90
2022/10/31 03:48:14;;;;;;;15.60;7.95;;;11.90;99.90;;;;;;4217791;28;20098;-90
2022/10/31 03:50:16;;;;;;;16.67;8.00;;;11.90;99.90;;;;;;4201100;28;20052;-90
2022/10/31 03:52:57;;;;;;;21.27;8.25;;;11.90;99.90;;;;;;4218959;28;20042;-89
2022/10/31 03:55:17;;;;;;;17.20;8.25;;;11.90;99.90;;;;;;4205902;28;20048;-90
2022/10/31 03:57:32;;;;;;;15.75;8.10;;;11.90;99.90;;;;;;4217756;28;20059;-90
2022/10/31 03:59:36;;;;;;;13.57;7.03;;;11.90;99.90;;;;;;4218583;28;20052;-90
2022/10/31 04:01:43;;;;;;;15.23;7.65;;;11.90;99.90;;;;;;4222411;28;20085;-90
2022/10/31 04:03:44;;;;;;;15.27;7.13;;;11.90;99.90;;;;;;4220444;28;20036;-90
2022/10/31 04:05:49;;;;;;;15.13;7.20;;;11.90;99.90;;;;;;4204847;28;20480;-90
2022/10/31 04:07:54;;;;;;;18.13;7.55;;;11.90;99.90;;;;;;4229518;28;20052;-91
2022/10/31 04:09:58;;;;;;;14.95;7.57;;;11.90;99.90;;;;;;4219057;28;20051;-90
2022/10/31 04:12:01;;;;;;;19.45;7.53;;;11.90;99.90;;;;;;4219232;28;20058;-90
2022/10/31 04:14:05;;;;;;;15.27;6.90;;;11.90;99.90;;;;;;4235795;28;20055;-91
2022/10/31 04:16:06;;;;;;;13.18;7.45;;;11.80;99.90;;;;;;4237612;28;20031;-90
2022/10/31 04:18:08;;;;;;;18.23;6.93;;;11.80;99.90;;;;;;4236224;28;20055;-90
2022/10/31 04:20:09;;;;;;;14.40;6.70;;;11.80;99.90;;;;;;4243867;28;20043;-90
2022/10/31 04:22:10;;;;;;;18.02;7.82;;;11.80;99.90;;;;;;4228410;28;20055;-90
2022/10/31 04:24:11;;;;;;;15.13;7.60;;;11.80;99.90;;;;;;4246498;28;20094;-90
2022/10/31 04:26:13;;;;;;;14.65;7.90;;;11.80;99.90;;;;;;4252704;28;20043;-90
2022/10/31 04:28:14;;;;;;;16.88;7.60;;;11.80;99.90;;;;;;4245941;28;20023;-90
2022/10/31 04:30:14;;;;;;;15.65;7.80;;;11.80;99.90;;;;;;4251465;28;20030;-90
2022/10/31 04:32:15;;;;;;;21.83;7.97;;;11.80;99.90;;;;;;4246555;28;20075;-90
2022/10/31 04:34:17;;;;;;;17.58;7.40;;;11.70;99.90;;;;;;4238188;28;20118;-91
2022/10/31 04:36:18;;;;;;;15.32;7.85;;;11.70;99.90;;;;;;4219955;28;20437;-90
2022/10/31 04:38:18;;;;;;;14.05;7.10;;;11.70;99.90;;;;;;4219955;28;20051;-91
2022/10/31 04:40:21;;;;;;;15.88;8.32;;;11.70;99.90;;;;;;4219558;28;20048;-90
2022/10/31 04:42:22;;;;;;;22.98;7.75;;;11.70;99.90;;;;;;4219958;28;20054;-91
2022/10/31 04:44:22;;;;;;;16.00;7.05;;;11.60;99.90;;;;;;4238330;28;20075;-91
2022/10/31 04:46:25;;;;;;;14.02;6.82;;;11.60;99.90;;;;;;4218891;28;20471;-91
2022/10/31 04:48:26;;;;;;;16.15;7.85;;;11.60;99.90;;;;;;4235259;28;20043;-91
2022/10/31 04:50:26;;;;;;;14.05;6.63;;;11.60;99.90;;;;;;4216987;28;20055;-90
2022/10/31 04:52:27;;;;;;;15.48;7.93;;;11.60;99.90;;;;;;4208720;28;20047;-91
2022/10/31 04:54:28;;;;;;;16.60;7.65;;;11.60;99.90;;;;;;4216738;28;20080;-91
2022/10/31 04:56:31;;;;;;;16.25;7.80;;;11.60;99.90;;;;;;4199995;28;20048;-91
2022/10/31 04:58:32;;;;;;;18.08;8.85;;;11.50;99.90;;;;;;4216774;28;20048;-91
2022/10/31 05:00:33;;;;;;;15.88;7.57;;;11.40;99.90;;;;;;4216376;28;20040;-91
2022/10/31 05:02:46;;;;;;;23.02;7.88;;;11.50;99.90;;;;;;4218060;28;20574;-91
2022/10/31 05:04:46;;;;;;;13.35;6.68;;;11.50;99.90;;;;;;4227085;28;20436;-91
2022/10/31 05:06:47;;;;;;;13.07;6.63;;;11.50;99.90;;;;;;4233448;28;20091;-91
2022/10/31 05:08:48;;;;;;;18.60;7.15;;;11.50;99.90;;;;;;4200050;28;20103;-91
2022/10/31 05:10:50;;;;;;;13.93;7.43;;;11.50;99.90;;;;;;4217348;28;20074;-90
2022/10/31 05:12:54;;;;;;;17.40;7.57;;;11.40;99.90;;;;;;4219524;28;20043;-91
2022/10/31 05:14:56;;;;;;;15.60;7.40;;;11.40;99.90;;;;;;4216807;28;20055;-91
2022/10/31 05:16:56;;;;;;;16.75;8.35;;;11.40;99.90;;;;;;4205136;28;20052;-91
2022/10/31 05:18:57;;;;;;;14.25;7.85;;;11.40;99.90;;;;;;4221077;28;20032;-91
2022/10/31 05:20:58;;;;;;;15.15;7.55;;;11.40;99.90;;;;;;4216068;28;20047;-91
2022/10/31 05:22:59;;;;;;;17.27;7.35;;;11.30;99.90;;;;;;4232865;28;20036;-91
2022/10/31 05:25:01;;;;;;;19.30;7.75;;;11.30;99.90;;;;;;4233425;28;20051;-91
2022/10/31 05:27:03;;;;;;;15.18;7.63;;;11.30;99.90;;;;;;4217567;28;20116;-91
2022/10/31 05:29:06;;;;;;;17.55;7.72;;;11.30;99.90;;;;;;4233335;28;20044;-92
2022/10/31 05:31:06;;;;;;;17.67;7.82;;;11.20;99.90;;;;;;4216460;28;20044;-91
2022/10/31 05:33:07;;;;;;;17.90;8.00;;;11.30;99.90;;;;;;4217061;28;20115;-91
2022/10/31 05:35:09;;;;;;;18.83;9.25;;;11.20;99.90;;;;;;4232171;28;20035;-91
2022/10/31 05:37:09;;;;;;;17.40;8.30;;;11.20;99.90;;;;;;4237727;28;20045;-90
2022/10/31 05:39:11;;;;;;;17.83;8.48;;;11.20;99.90;;;;;;4237065;28;20083;-91
2022/10/31 05:41:12;;;;;;;21.15;8.20;;;11.20;99.90;;;;;;4233838;28;20078;-91
2022/10/31 05:43:13;;;;;;;18.50;8.82;;;11.20;99.90;;;;;;4233804;28;20036;-91
2022/10/31 05:45:17;;;;;;;20.30;8.50;;;11.10;99.90;;;;;;4225390;28;20562;-91
2022/10/31 05:47:20;;;;;;;18.63;8.45;;;11.10;99.90;;;;;;4232831;28;20063;-91
2022/10/31 05:49:28;;;;;;;16.25;8.90;;;11.10;99.90;;;;;;4236071;28;20102;-92
2022/10/31 05:51:31;;;;;;;17.33;9.07;;;11.10;99.90;;;;;;4240808;28;20047;-91
2022/10/31 05:53:33;;;;;;;19.58;8.43;;;11.10;99.90;;;;;;4224448;28;20062;-92
2022/10/31 05:55:35;;;;;;;20.10;8.35;;;11.10;99.90;;;;;;4237771;28;20043;-91
2022/10/31 05:57:35;;;;;;;17.48;8.55;;;11.00;99.90;;;;;;4240085;28;20103;-91
2022/10/31 05:59:40;;;;;;;19.27;8.82;;;11.00;99.90;;;;;;4234821;28;20092;-91
2022/10/31 06:01:51;;;;;;;14.30;8.93;;;11.00;99.90;;;;;;4219221;28;20046;-91
2022/10/31 06:04:18;;;;;;;21.80;8.80;;;11.00;99.90;;;;;;4235417;28;20047;-91
2022/10/31 06:06:19;;;;;;;16.63;8.57;;;10.90;99.90;;;;;;4216849;28;20472;-91
2022/10/31 06:08:20;;;;;;;18.65;9.35;;;10.90;99.90;;;;;;4216484;28;20082;-91
2022/10/31 06:10:21;;;;;;;18.80;8.55;;;10.90;99.90;;;;;;4233613;28;20055;-91
2022/10/31 06:12:24;;;;;;;15.45;8.30;;;10.90;99.90;;;;;;4220920;28;20048;-91
2022/10/31 06:14:32;;;;;;;18.08;8.63;;;10.90;99.90;;;;;;4234436;28;20104;-92
2022/10/31 06:16:37;;;;;;;20.15;9.07;;;10.90;99.90;;;;;;4249906;28;20092;-92
2022/10/31 06:18:37;;;;;;;15.80;7.85;;;10.90;99.90;;;;;;4233888;28;20032;-91
2022/10/31 06:20:38;;;;;;;20.15;8.77;;;10.80;99.90;;;;;;4233709;28;20036;-91
2022/10/31 06:22:51;;;;;;;14.43;8.35;;;10.90;99.90;;;;;;4232902;28;20044;-91
2022/10/31 06:25:10;;;;;;;15.70;8.07;;;10.80;99.90;;;;;;4251087;28;20031;-91
2022/10/31 06:27:15;;;;;;;19.60;9.13;;;10.80;99.90;;;;;;4232390;28;20180;-91
2022/10/31 06:29:21;;;;;;;16.85;8.52;;;10.80;99.90;;;;;;4249176;28;20023;-91
2022/10/31 06:31:22;;;;;;;19.55;9.02;;;10.80;99.90;;;;;;4245564;28;20047;-91
2022/10/31 06:33:23;;;;;;;19.55;9.40;;;10.80;99.90;;;;;;4242638;28;20043;-91
2022/10/31 06:35:34;;;;;;;19.85;8.98;;;10.90;99.90;;;;;;4235052;28;20445;-91
2022/10/31 06:37:35;;;;;;;22.65;9.98;;;10.80;99.90;;;;;;4209005;28;20052;-90
2022/10/31 06:39:43;;;;;;;18.35;8.80;;;10.80;99.90;;;;;;4200973;28;20417;-90
2022/10/31 06:41:47;;;;;;;19.10;8.32;;;10.80;99.90;;;;;;4200972;28;20044;-91
2022/10/31 06:43:49;;;;;;;20.00;9.88;;;10.80;99.90;;;;;;4243133;27;20118;-91
2022/10/31 06:45:50;;;;;;;18.75;9.57;;;10.80;99.90;;;;;;4213058;28;20110;-91
2022/10/31 06:47:54;;;;;;;20.63;9.65;;;10.80;99.90;;;;;;4215882;28;20138;-90
2022/10/31 06:49:55;;;;;;;21.27;9.23;;;10.80;99.90;;;;;;4227270;28;20044;-91
2022/10/31 06:51:56;;;;;;;19.73;8.63;;;10.80;99.90;;;;;;4215701;28;20478;-91
2022/10/31 06:53:57;;;;;;;25.23;9.52;;;10.80;99.90;;;;;;4231606;28;20375;-91
2022/10/31 06:55:58;;;;;;;23.80;10.05;;;10.80;99.90;;;;;;4219583;28;20043;-91
2022/10/31 06:58:01;;;;;;;20.88;9.82;;;10.80;99.90;;;;;;4197834;28;20045;-91
2022/10/31 07:00:04;;;;;;;19.02;9.90;;;10.80;99.90;;;;;;4215835;28;20039;-90
2022/10/31 07:02:05;;;;;;;24.15;9.32;;;10.90;99.90;;;;;;4228240;28;20047;-91
2022/10/31 07:04:05;;;;;;;17.83;9.70;;;10.80;99.90;;;;;;4212653;28;20048;-92
2022/10/31 07:06:12;;;;;;;18.83;8.98;;;10.90;99.90;;;;;;4198706;28;20045;-90
2022/10/31 07:08:14;;;;;;;16.38;8.07;;;10.90;99.90;;;;;;4230795;28;20097;-91
2022/10/31 07:10:15;;;;;;;19.58;9.13;;;10.90;99.90;;;;;;4231603;28;20078;-91
2022/10/31 07:12:16;;;;;;;24.38;10.45;;;10.90;99.90;;;;;;4217115;28;20501;-91
2022/10/31 07:14:18;;;;;;;16.95;9.57;;;10.90;99.90;;;;;;4235191;28;20126;-91
2022/10/31 07:16:19;;;;;;;22.70;9.70;;;10.90;99.90;;;;;;4224766;28;20051;-91
2022/10/31 07:18:20;;;;;;;20.27;8.65;;;10.90;99.90;;;;;;4218276;28;20051;-91
2022/10/31 07:20:23;;;;;;;17.50;9.02;;;10.90;99.90;;;;;;4236436;28;20039;-91
2022/10/31 07:22:24;;;;;;;17.35;7.80;;;10.80;99.90;;;;;;4232486;28;20036;-91
2022/10/31 07:24:24;;;;;;;21.67;9.43;;;10.80;99.90;;;;;;4202799;28;20416;-90
2022/10/31 07:26:31;;;;;;;15.30;8.95;;;10.80;99.90;;;;;;4234258;28;20039;-92
2022/10/31 07:28:32;;;;;;;23.05;9.38;;;10.80;99.90;;;;;;4218144;28;20494;-91
2022/10/31 07:30:34;;;;;;;28.02;10.32;;;10.80;99.90;;;;;;4234186;28;20413;-91
2022/10/31 07:32:43;;;;;;;24.63;11.07;;;10.80;99.90;;;;;;4217325;28;20532;-91
2022/10/31 07:34:45;;;;;;;24.45;10.07;;;10.80;99.90;;;;;;4237176;28;20083;-91
2022/10/31 07:36:45;;;;;;;20.63;10.30;;;10.80;99.90;;;;;;4233457;28;20039;-91
2022/10/31 07:38:47;;;;;;;21.13;10.25;;;10.80;99.90;;;;;;4217501;28;20129;-91
2022/10/31 07:40:55;;;;;;;22.85;10.20;;;10.80;99.90;;;;;;4234959;28;20035;-91
2022/10/31 07:42:57;;;;;;;18.95;9.20;;;10.80;99.90;;;;;;4216335;28;20406;-90
2022/10/31 07:44:59;;;;;;;23.40;10.73;;;10.90;99.90;;;;;;4235451;28;20514;-91
2022/10/31 07:47:01;;;;;;;19.52;10.00;;;10.90;99.90;;;;;;4233201;28;20112;-90
2022/10/31 07:49:02;;;;;;;20.10;8.98;;;10.90;99.90;;;;;;4233806;28;20106;-91
2022/10/31 07:51:08;;;;;;;20.70;10.90;;;11.00;99.90;;;;;;4234502;28;20402;-90
2022/10/31 07:53:12;;;;;;;16.60;9.52;;;11.00;99.90;;;;;;4203628;28;20048;-91
2022/10/31 07:55:14;;;;;;;19.42;10.85;;;11.10;99.90;;;;;;4223654;28;20047;-90
2022/10/31 07:57:15;;;;;;;20.13;9.40;;;11.10;99.90;;;;;;4233473;28;20046;-90
2022/10/31 07:59:16;;;;;;;21.65;10.13;;;11.20;99.90;;;;;;4202561;28;20477;-91
2022/10/31 08:01:18;;;;;;;21.63;10.60;;;11.20;99.90;;;;;;4200668;28;20079;-91
2022/10/31 08:03:21;;;;;;;19.15;10.43;;;11.30;99.90;;;;;;4201185;28;20083;-91
2022/10/31 08:05:24;;;;;;;21.83;10.50;;;11.40;99.90;;;;;;4216292;28;20091;-92
2022/10/31 08:07:25;;;;;;;18.40;10.07;;;11.40;99.90;;;;;;4217373;28;20047;-91
2022/10/31 08:09:27;;;;;;;16.98;9.68;;;11.50;99.90;;;;;;4217718;28;20056;-91
2022/10/31 08:11:28;;;;;;;21.73;10.18;;;11.50;99.90;;;;;;4217759;28;20044;-91
2022/10/31 08:13:30;;;;;;;22.27;10.02;;;11.60;99.90;;;;;;4217758;28;20582;-91
2022/10/31 08:15:31;;;;;;;19.60;10.30;;;11.60;99.90;;;;;;4217167;28;20059;-90
2022/10/31 08:17:37;;;;;;;19.10;9.38;;;11.70;99.90;;;;;;4216384;28;20040;-90
2022/10/31 08:19:38;;;;;;;18.67;8.32;;;11.80;99.90;;;;;;4234241;28;20039;-91
2022/10/31 08:21:39;;;;;;;18.35;10.00;;;12.00;99.90;;;;;;4233959;28;20048;-91
2022/10/31 08:23:40;;;;;;;18.17;9.90;;;12.30;99.90;;;;;;4217343;28;20415;-90
2022/10/31 08:25:42;;;;;;;15.77;8.48;;;12.90;99.90;;;;;;4233801;28;20053;-90
2022/10/31 08:27:42;;;;;;;15.07;8.18;;;13.80;99.90;;;;;;4233606;28;20117;-91
2022/10/31 08:29:43;;;;;;;18.42;9.07;;;14.50;99.90;;;;;;4233585;28;20043;-91
2022/10/31 08:31:44;;;;;;;14.27;7.72;;;15.00;99.90;;;;;;4222520;28;20072;-92
2022/10/31 08:33:44;;;;;;;14.70;7.43;;;15.10;99.90;;;;;;4218126;28;20036;-89
2022/10/31 08:35:45;;;;;;;11.27;6.82;;;15.20;99.90;;;;;;4233497;28;20039;-92
2022/10/31 08:37:55;;;;;;;11.88;6.65;;;15.50;99.90;;;;;;4233301;28;20047;-91
2022/10/31 08:39:56;;;;;;;12.73;6.72;;;15.90;99.90;;;;;;4229424;28;20044;-93
2022/10/31 08:41:57;;;;;;;13.82;6.57;;;16.10;99.90;;;;;;4199231;28;20403;-91
2022/10/31 08:43:59;;;;;;;12.73;7.30;;;16.10;99.90;;;;;;4213197;28;20044;-92
2022/10/31 08:46:02;;;;;;;13.02;6.70;;;16.20;99.90;;;;;;4229487;28;20044;-92
2022/10/31 08:48:06;;;;;;;13.10;7.47;;;16.60;99.90;;;;;;4215743;28;20048;-88
2022/10/31 08:50:07;;;;;;;10.70;6.50;;;17.00;99.90;;;;;;4214564;28;20048;-89
2022/10/31 08:52:08;;;;;;;11.63;6.57;;;17.40;99.90;;;;;;4198017;28;20036;-89
2022/10/31 08:54:08;;;;;;;12.65;7.00;;;17.50;99.90;;;;;;4215031;28;20051;-90
2022/10/31 08:56:09;;;;;;;12.00;6.28;;;17.30;99.90;;;;;;4215106;28;20126;-89
2022/10/31 08:58:16;;;;;;;11.18;6.78;;;17.10;99.90;;;;;;4221089;28;20040;-90
2022/10/31 09:00:17;;;;;;;10.15;6.38;;;17.00;99.90;;;;;;4233485;28;20066;-89
2022/10/31 09:02:17;;;;;;;12.50;6.35;;;16.90;99.90;;;;;;4203077;28;20048;-90
2022/10/31 09:04:18;;;;;;;16.20;6.97;;;17.00;99.90;;;;;;4217557;28;20040;-89
2022/10/31 09:06:21;;;;;;;11.52;6.28;;;17.10;99.90;;;;;;4219240;28;20076;-87
2022/10/31 09:08:24;;;;;;;12.82;5.85;;;17.40;99.90;;;;;;4234026;28;20134;-92
2022/10/31 09:10:29;;;;;;;12.18;6.32;;;17.90;99.90;;;;;;4217736;28;20073;-92
2022/10/31 09:12:29;;;;;;;13.48;5.72;;;18.40;99.90;;;;;;4235204;28;20048;-92
2022/10/31 09:14:30;;;;;;;9.25;5.68;;;18.90;99.90;;;;;;4232610;28;20534;-87
2022/10/31 09:16:31;;;;;;;10.43;6.40;;;18.80;99.90;;;;;;4230808;28;20101;-91
2022/10/31 09:18:32;;;;;;;12.38;6.13;;;18.40;99.90;;;;;;4201617;28;20041;-91
2022/10/31 09:20:35;;;;;;;13.57;6.50;;;18.30;99.90;;;;;;4217810;28;20055;-91
2022/10/31 09:22:37;;;;;;;14.73;6.13;;;18.20;99.90;;;;;;4231274;28;20050;-91
2022/10/31 09:24:39;;;;;;;11.48;6.18;;;18.20;99.90;;;;;;4219454;28;20079;-91
2022/10/31 09:26:40;;;;;;;10.00;6.10;;;18.10;99.90;;;;;;4233367;28;20496;-91
2022/10/31 09:28:40;;;;;;;9.82;6.20;;;17.90;99.90;;;;;;4215888;28;20276;-90
2022/10/31 09:30:42;;;;;;;13.98;6.65;;;17.90;99.90;;;;;;4233534;28;20062;-91
2022/10/31 09:32:43;;;;;;;7.72;5.07;;;17.80;99.90;;;;;;4215125;28;20101;-91
2022/10/31 09:34:44;;;;;;;9.25;5.85;;;17.80;99.90;;;;;;4199559;28;20438;-90
2022/10/31 09:36:45;;;;;;;11.43;5.80;;;17.60;99.90;;;;;;4217515;28;20574;-90
2022/10/31 09:38:46;;;;;;;10.65;5.75;;;17.50;99.90;;;;;;4234436;28;20043;-91
2022/10/31 09:41:01;;;;;;;12.07;6.18;;;17.50;99.90;;;;;;4233259;28;20439;-91
2022/10/31 09:43:14;;;;;;;11.75;5.60;;;17.80;99.90;;;;;;4234300;28;20055;-91
2022/10/31 09:45:23;;;;;;;8.80;5.50;;;17.90;99.90;;;;;;4234934;28;20114;-91
2022/10/31 09:47:52;;;;;;;8.23;5.47;;;17.90;99.90;;;;;;4217151;28;20052;-92
2022/10/31 09:50:01;;;;;;;9.23;5.10;;;17.70;99.90;;;;;;4216858;28;20044;-91
2022/10/31 09:52:20;;;;;;;11.55;5.22;;;17.60;99.90;;;;;;4234795;28;20044;-92
2022/10/31 09:54:29;;;;;;;10.88;5.57;;;17.70;99.90;;;;;;4232551;28;20077;-91
2022/10/31 09:56:31;;;;;;;10.63;5.38;;;17.60;99.90;;;;;;4234147;28;20075;-91
2022/10/31 09:58:39;;;;;;;8.10;5.30;;;17.70;99.90;;;;;;4223865;28;20123;-91
2022/10/31 10:00:43;;;;;;;10.43;5.65;;;17.80;99.90;;;;;;4215922;28;20043;-91
2022/10/31 10:02:57;;;;;;;11.60;5.68;;;17.80;99.90;;;;;;4218219;28;20036;-91
2022/10/31 10:05:01;;;;;;;8.82;5.60;;;17.70;99.90;;;;;;4215171;28;20048;-90
2022/10/31 10:07:16;;;;;;;9.50;5.63;;;17.50;99.90;;;;;;4216579;28;20055;-90
2022/10/31 10:09:24;;;;;;;9.93;5.57;;;17.60;99.90;;;;;;4214214;28;20051;-91
2022/10/31 10:11:36;;;;;;;9.95;5.50;;;17.60;99.90;;;;;;4227864;28;20109;-90
2022/10/31 10:13:54;;;;;;;12.43;5.32;;;17.60;99.90;;;;;;4215159;28;20563;-91
2022/10/31 10:16:03;;;;;;;9.68;5.72;;;17.40;99.90;;;;;;4214486;28;20044;-90
2022/10/31 10:18:20;;;;;;;9.48;5.95;;;17.50;99.90;;;;;;4199602;28;20040;-91
2022/10/31 10:20:42;;;;;;;9.50;5.60;;;17.40;99.90;;;;;;4231351;28;20047;-90
2022/10/31 10:22:50;;;;;;;11.23;5.53;;;17.60;99.90;;;;;;4232992;28;20035;-91
2022/10/31 10:25:20;;;;;;;9.35;5.43;;;17.70;99.90;;;;;;4232092;28;20564;-91
2022/10/31 10:27:32;;;;;;;10.73;5.20;;;17.80;99.90;;;;;;4215197;28;20078;-91
2022/10/31 10:29:44;;;;;;;10.27;5.20;;;18.10;99.90;;;;;;4198839;28;20083;-91
2022/10/31 10:31:49;;;;;;;10.88;5.45;;;18.30;99.90;;;;;;4215687;28;20044;-91
2022/10/31 10:33:53;;;;;;;8.18;4.78;;;18.50;99.90;;;;;;4219018;28;20549;-92
2022/10/31 10:36:00;;;;;;;9.38;5.35;;;18.70;99.90;;;;;;4216043;28;20052;-92
2022/10/31 10:38:34;;;;;;;8.48;4.90;;;18.70;99.90;;;;;;4229909;28;20470;-92
2022/10/31 10:40:37;;;;;;;7.60;4.75;;;18.80;99.90;;;;;;4210397;28;20048;-91
2022/10/31 10:47:38;;;;;;;8.48;4.63;;;19.00;99.90;;;;;;4231887;28;20069;-92